sensor_id;sensor_type;location;lat;lon;timestamp;P1;durP1;ratioP1;P2;durP2;ratioP2
25535;SDS011;13431;51.352;6.412;2022-11-20T00:01:23;20.58;;;15.40;;
25535;SDS011;13431;51.352;6.412;2022-11-20T00:03:52;19.13;;;16.13;;
25535;SDS011;13431;51.352;6.412;2022-11-20T00:06:21;17.63;;;15.73;;
25535;SDS011;13431;51.352;6.412;2022-11-20T00:08:49;18.77;;;15.48;;
25535;SDS011;13431;51.352;6.412;2022-11-20T00:11:18;18.50;;;16.40;;
25535;SDS011;13431;51.352;6.412;2022-11-20T00:13:48;18.70;;;16.58;;
25535;SDS011;13431;51.352;6.412;2022-11-20T00:16:18;19.33;;;15.68;;
25535;SDS011;13431;51.352;6.412;2022-11-20T00:18:47;19.17;;;16.45;;
25535;SDS011;13431;51.352;6.412;2022-11-20T00:21:15;19.15;;;15.63;;
25535;SDS011;13431;51.352;6.412;2022-11-20T00:23:45;20.65;;;15.73;;
25535;SDS011;13431;51.352;6.412;2022-11-20T00:26:14;19.50;;;15.50;;
25535;SDS011;13431;51.352;6.412;2022-11-20T00:28:43;19.50;;;15.15;;
25535;SDS011;13431;51.352;6.412;2022-11-20T00:31:12;17.90;;;15.98;;
25535;SDS011;13431;51.352;6.412;2022-11-20T00:33:41;19.15;;;16.35;;
25535;SDS011;13431;51.352;6.412;2022-11-20T00:36:11;18.90;;;16.02;;
25535;SDS011;13431;51.352;6.412;2022-11-20T00:38:40;20.33;;;17.08;;
25535;SDS011;13431;51.352;6.412;2022-11-20T00:41:09;18.75;;;15.93;;
25535;SDS011;13431;51.352;6.412;2022-11-20T00:43:38;19.05;;;15.63;;
25535;SDS011;13431;51.352;6.412;2022-11-20T00:46:07;18.95;;;15.57;;
25535;SDS011;13431;51.352;6.412;2022-11-20T00:48:45;19.83;;;17.17;;
25535;SDS011;13431;51.352;6.412;2022-11-20T00:51:13;20.08;;;15.77;;
25535;SDS011;13431;51.352;6.412;2022-11-20T00:53:43;17.80;;;15.40;;
25535;SDS011;13431;51.352;6.412;2022-11-20T00:56:11;21.05;;;16.10;;
25535;SDS011;13431;51.352;6.412;2022-11-20T00:58:40;20.02;;;16.40;;
25535;SDS011;13431;51.352;6.412;2022-11-20T01:01:11;20.85;;;16.20;;
25535;SDS011;13431;51.352;6.412;2022-11-20T01:03:42;19.83;;;15.75;;
25535;SDS011;13431;51.352;6.412;2022-11-20T01:08:46;20.95;;;16.02;;
25535;SDS011;13431;51.352;6.412;2022-11-20T01:11:16;20.38;;;15.30;;
25535;SDS011;13431;51.352;6.412;2022-11-20T01:13:45;18.23;;;15.68;;
25535;SDS011;13431;51.352;6.412;2022-11-20T01:16:21;17.25;;;14.50;;
25535;SDS011;13431;51.352;6.412;2022-11-20T01:18:56;17.88;;;15.45;;
25535;SDS011;13431;51.352;6.412;2022-11-20T01:21:29;17.33;;;14.27;;
25535;SDS011;13431;51.352;6.412;2022-11-20T01:23:58;18.77;;;14.90;;
25535;SDS011;13431;51.352;6.412;2022-11-20T01:26:32;20.10;;;16.75;;
25535;SDS011;13431;51.352;6.412;2022-11-20T01:29:02;16.90;;;14.63;;
25535;SDS011;13431;51.352;6.412;2022-11-20T01:31:34;21.27;;;16.35;;
25535;SDS011;13431;51.352;6.412;2022-11-20T01:34:04;17.42;;;14.68;;
25535;SDS011;13431;51.352;6.412;2022-11-20T01:36:40;19.30;;;14.90;;
25535;SDS011;13431;51.352;6.412;2022-11-20T01:41:41;19.10;;;15.20;;
25535;SDS011;13431;51.352;6.412;2022-11-20T01:44:45;19.85;;;15.32;;
25535;SDS011;13431;51.352;6.412;2022-11-20T01:47:40;16.55;;;14.25;;
25535;SDS011;13431;51.352;6.412;2022-11-20T01:50:22;18.98;;;15.85;;
25535;SDS011;13431;51.352;6.412;2022-11-20T01:53:08;18.23;;;14.57;;
25535;SDS011;13431;51.352;6.412;2022-11-20T01:55:45;18.23;;;15.88;;
25535;SDS011;13431;51.352;6.412;2022-11-20T01:58:18;18.60;;;15.57;;
25535;SDS011;13431;51.352;6.412;2022-11-20T02:00:51;20.48;;;16.17;;
25535;SDS011;13431;51.352;6.412;2022-11-20T02:03:19;17.42;;;14.68;;
25535;SDS011;13431;51.352;6.412;2022-11-20T02:08:38;18.60;;;15.35;;
25535;SDS011;13431;51.352;6.412;2022-11-20T02:11:06;20.02;;;16.02;;
25535;SDS011;13431;51.352;6.412;2022-11-20T02:13:33;19.20;;;15.25;;
25535;SDS011;13431;51.352;6.412;2022-11-20T02:16:15;17.90;;;15.43;;
25535;SDS011;13431;51.352;6.412;2022-11-20T02:26:54;20.52;;;15.88;;
25535;SDS011;13431;51.352;6.412;2022-11-20T02:29:31;24.13;;;16.52;;
25535;SDS011;13431;51.352;6.412;2022-11-20T02:32:02;19.20;;;17.02;;
25535;SDS011;13431;51.352;6.412;2022-11-20T02:34:30;20.05;;;16.10;;
25535;SDS011;13431;51.352;6.412;2022-11-20T02:36:58;22.00;;;15.80;;
25535;SDS011;13431;51.352;6.412;2022-11-20T02:39:26;29.27;;;26.17;;
25535;SDS011;13431;51.352;6.412;2022-11-20T02:41:55;25.63;;;18.58;;
25535;SDS011;13431;51.352;6.412;2022-11-20T02:44:23;19.40;;;16.63;;
25535;SDS011;13431;51.352;6.412;2022-11-20T02:46:50;20.13;;;16.95;;
25535;SDS011;13431;51.352;6.412;2022-11-20T02:49:18;24.23;;;20.50;;
25535;SDS011;13431;51.352;6.412;2022-11-20T02:51:45;23.17;;;18.58;;
25535;SDS011;13431;51.352;6.412;2022-11-20T02:54:13;23.63;;;17.88;;
25535;SDS011;13431;51.352;6.412;2022-11-20T02:56:40;21.90;;;17.70;;
25535;SDS011;13431;51.352;6.412;2022-11-20T02:59:08;22.92;;;17.35;;
25535;SDS011;13431;51.352;6.412;2022-11-20T03:01:36;21.83;;;17.58;;
25535;SDS011;13431;51.352;6.412;2022-11-20T03:04:04;19.88;;;16.90;;
25535;SDS011;13431;51.352;6.412;2022-11-20T03:06:31;22.63;;;17.58;;
25535;SDS011;13431;51.352;6.412;2022-11-20T03:08:59;23.23;;;19.02;;
25535;SDS011;13431;51.352;6.412;2022-11-20T03:11:26;20.27;;;16.90;;
25535;SDS011;13431;51.352;6.412;2022-11-20T03:13:53;20.65;;;16.90;;
25535;SDS011;13431;51.352;6.412;2022-11-20T03:16:21;23.48;;;18.40;;
25535;SDS011;13431;51.352;6.412;2022-11-20T03:18:51;21.42;;;18.65;;
25535;SDS011;13431;51.352;6.412;2022-11-20T03:21:20;23.02;;;18.55;;
25535;SDS011;13431;51.352;6.412;2022-11-20T03:23:47;23.70;;;17.58;;
25535;SDS011;13431;51.352;6.412;2022-11-20T03:28:46;22.20;;;17.27;;
25535;SDS011;13431;51.352;6.412;2022-11-20T03:31:20;21.38;;;17.90;;
25535;SDS011;13431;51.352;6.412;2022-11-20T03:33:49;20.73;;;16.63;;
25535;SDS011;13431;51.352;6.412;2022-11-20T03:36:17;22.08;;;16.95;;
25535;SDS011;13431;51.352;6.412;2022-11-20T03:38:45;23.90;;;19.52;;
25535;SDS011;13431;51.352;6.412;2022-11-20T03:41:20;19.50;;;16.75;;
25535;SDS011;13431;51.352;6.412;2022-11-20T03:43:53;19.67;;;16.70;;
25535;SDS011;13431;51.352;6.412;2022-11-20T03:46:22;20.15;;;17.45;;
25535;SDS011;13431;51.352;6.412;2022-11-20T03:48:50;18.85;;;16.52;;
25535;SDS011;13431;51.352;6.412;2022-11-20T03:51:22;21.05;;;16.08;;
25535;SDS011;13431;51.352;6.412;2022-11-20T03:53:55;20.63;;;16.08;;
25535;SDS011;13431;51.352;6.412;2022-11-20T03:56:25;28.17;;;17.20;;
25535;SDS011;13431;51.352;6.412;2022-11-20T03:58:54;21.67;;;17.00;;
25535;SDS011;13431;51.352;6.412;2022-11-20T04:01:23;19.30;;;16.35;;
25535;SDS011;13431;51.352;6.412;2022-11-20T04:03:56;18.05;;;14.95;;
25535;SDS011;13431;51.352;6.412;2022-11-20T04:06:25;19.60;;;16.10;;
25535;SDS011;13431;51.352;6.412;2022-11-20T04:08:54;17.83;;;15.43;;
25535;SDS011;13431;51.352;6.412;2022-11-20T04:14:00;19.40;;;16.92;;
25535;SDS011;13431;51.352;6.412;2022-11-20T04:16:30;20.45;;;15.82;;
25535;SDS011;13431;51.352;6.412;2022-11-20T04:18:59;17.08;;;15.35;;
25535;SDS011;13431;51.352;6.412;2022-11-20T04:21:28;20.27;;;15.93;;
25535;SDS011;13431;51.352;6.412;2022-11-20T04:23:55;18.73;;;16.50;;
25535;SDS011;13431;51.352;6.412;2022-11-20T04:26:24;17.13;;;15.32;;
25535;SDS011;13431;51.352;6.412;2022-11-20T04:28:53;16.13;;;14.43;;
25535;SDS011;13431;51.352;6.412;2022-11-20T04:31:25;17.02;;;15.23;;
25535;SDS011;13431;51.352;6.412;2022-11-20T04:33:54;16.08;;;14.38;;
25535;SDS011;13431;51.352;6.412;2022-11-20T04:36:22;16.35;;;14.38;;
25535;SDS011;13431;51.352;6.412;2022-11-20T04:38:51;20.58;;;15.43;;
25535;SDS011;13431;51.352;6.412;2022-11-20T04:41:24;18.00;;;15.20;;
25535;SDS011;13431;51.352;6.412;2022-11-20T04:43:54;16.98;;;15.02;;
25535;SDS011;13431;51.352;6.412;2022-11-20T04:46:26;16.13;;;14.10;;
25535;SDS011;13431;51.352;6.412;2022-11-20T04:48:54;18.38;;;14.50;;
25535;SDS011;13431;51.352;6.412;2022-11-20T04:51:22;16.92;;;15.07;;
25535;SDS011;13431;51.352;6.412;2022-11-20T04:53:50;16.77;;;14.75;;
25535;SDS011;13431;51.352;6.412;2022-11-20T04:56:17;16.55;;;14.60;;
25535;SDS011;13431;51.352;6.412;2022-11-20T04:58:45;17.67;;;14.55;;
25535;SDS011;13431;51.352;6.412;2022-11-20T05:01:16;16.38;;;14.50;;
25535;SDS011;13431;51.352;6.412;2022-11-20T05:03:46;17.97;;;14.70;;
25535;SDS011;13431;51.352;6.412;2022-11-20T05:06:14;18.63;;;14.98;;
25535;SDS011;13431;51.352;6.412;2022-11-20T05:08:43;18.58;;;14.77;;
25535;SDS011;13431;51.352;6.412;2022-11-20T05:11:12;17.73;;;15.68;;
25535;SDS011;13431;51.352;6.412;2022-11-20T05:13:41;17.13;;;15.25;;
25535;SDS011;13431;51.352;6.412;2022-11-20T05:16:10;17.88;;;15.75;;
25535;SDS011;13431;51.352;6.412;2022-11-20T05:18:39;16.38;;;14.60;;
25535;SDS011;13431;51.352;6.412;2022-11-20T05:21:08;18.08;;;15.27;;
25535;SDS011;13431;51.352;6.412;2022-11-20T05:23:36;17.65;;;15.05;;
25535;SDS011;13431;51.352;6.412;2022-11-20T05:26:05;17.67;;;15.18;;
25535;SDS011;13431;51.352;6.412;2022-11-20T05:28:34;17.00;;;15.23;;
25535;SDS011;13431;51.352;6.412;2022-11-20T05:31:09;17.83;;;14.48;;
25535;SDS011;13431;51.352;6.412;2022-11-20T05:33:52;16.45;;;14.65;;
25535;SDS011;13431;51.352;6.412;2022-11-20T05:36:20;16.02;;;14.18;;
25535;SDS011;13431;51.352;6.412;2022-11-20T05:38:47;18.52;;;16.15;;
25535;SDS011;13431;51.352;6.412;2022-11-20T05:41:18;19.40;;;16.33;;
25535;SDS011;13431;51.352;6.412;2022-11-20T05:43:46;19.00;;;15.70;;
25535;SDS011;13431;51.352;6.412;2022-11-20T05:46:16;17.15;;;15.32;;
25535;SDS011;13431;51.352;6.412;2022-11-20T05:48:53;19.50;;;15.18;;
25535;SDS011;13431;51.352;6.412;2022-11-20T05:51:21;17.83;;;15.07;;
25535;SDS011;13431;51.352;6.412;2022-11-20T05:53:48;17.73;;;15.23;;
25535;SDS011;13431;51.352;6.412;2022-11-20T05:56:17;16.05;;;13.93;;
25535;SDS011;13431;51.352;6.412;2022-11-20T05:58:46;18.08;;;14.80;;
25535;SDS011;13431;51.352;6.412;2022-11-20T06:01:16;17.45;;;14.43;;
25535;SDS011;13431;51.352;6.412;2022-11-20T06:03:49;15.93;;;14.25;;
25535;SDS011;13431;51.352;6.412;2022-11-20T06:06:18;16.13;;;14.40;;
25535;SDS011;13431;51.352;6.412;2022-11-20T06:08:46;17.13;;;13.88;;
25535;SDS011;13431;51.352;6.412;2022-11-20T06:11:14;14.45;;;12.95;;
25535;SDS011;13431;51.352;6.412;2022-11-20T06:13:45;16.15;;;14.45;;
25535;SDS011;13431;51.352;6.412;2022-11-20T06:16:14;15.70;;;14.10;;
25535;SDS011;13431;51.352;6.412;2022-11-20T06:18:43;16.50;;;13.93;;
25535;SDS011;13431;51.352;6.412;2022-11-20T06:21:12;17.50;;;15.65;;
25535;SDS011;13431;51.352;6.412;2022-11-20T06:23:44;19.08;;;15.43;;
25535;SDS011;13431;51.352;6.412;2022-11-20T06:26:30;17.77;;;15.32;;
25535;SDS011;13431;51.352;6.412;2022-11-20T06:28:58;20.60;;;16.08;;
25535;SDS011;13431;51.352;6.412;2022-11-20T06:31:25;17.17;;;14.60;;
25535;SDS011;13431;51.352;6.412;2022-11-20T06:33:53;16.40;;;14.23;;
25535;SDS011;13431;51.352;6.412;2022-11-20T06:36:21;17.05;;;14.88;;
25535;SDS011;13431;51.352;6.412;2022-11-20T06:38:49;16.85;;;14.52;;
25535;SDS011;13431;51.352;6.412;2022-11-20T06:41:18;17.73;;;14.82;;
25535;SDS011;13431;51.352;6.412;2022-11-20T06:43:47;16.70;;;14.35;;
25535;SDS011;13431;51.352;6.412;2022-11-20T06:46:15;15.20;;;13.68;;
25535;SDS011;13431;51.352;6.412;2022-11-20T06:48:47;16.83;;;15.02;;
25535;SDS011;13431;51.352;6.412;2022-11-20T06:51:15;17.25;;;14.55;;
25535;SDS011;13431;51.352;6.412;2022-11-20T06:53:42;17.58;;;15.27;;
25535;SDS011;13431;51.352;6.412;2022-11-20T06:56:10;16.30;;;14.60;;
25535;SDS011;13431;51.352;6.412;2022-11-20T06:58:37;15.63;;;13.98;;
25535;SDS011;13431;51.352;6.412;2022-11-20T07:01:06;17.00;;;14.75;;
25535;SDS011;13431;51.352;6.412;2022-11-20T07:03:35;17.30;;;15.05;;
25535;SDS011;13431;51.352;6.412;2022-11-20T07:06:03;17.00;;;15.20;;
25535;SDS011;13431;51.352;6.412;2022-11-20T07:08:32;16.73;;;14.93;;
25535;SDS011;13431;51.352;6.412;2022-11-20T07:11:01;18.25;;;15.48;;
25535;SDS011;13431;51.352;6.412;2022-11-20T07:13:30;16.35;;;14.13;;
25535;SDS011;13431;51.352;6.412;2022-11-20T07:16:03;17.70;;;15.25;;
25535;SDS011;13431;51.352;6.412;2022-11-20T07:18:32;17.33;;;15.47;;
25535;SDS011;13431;51.352;6.412;2022-11-20T07:21:00;18.10;;;15.80;;
25535;SDS011;13431;51.352;6.412;2022-11-20T07:23:31;17.65;;;15.75;;
25535;SDS011;13431;51.352;6.412;2022-11-20T07:26:02;16.77;;;14.32;;
25535;SDS011;13431;51.352;6.412;2022-11-20T07:28:33;17.70;;;15.60;;
25535;SDS011;13431;51.352;6.412;2022-11-20T07:31:01;17.80;;;15.80;;
25535;SDS011;13431;51.352;6.412;2022-11-20T07:33:28;16.60;;;14.85;;
25535;SDS011;13431;51.352;6.412;2022-11-20T07:35:57;16.88;;;15.00;;
25535;SDS011;13431;51.352;6.412;2022-11-20T07:38:26;18.25;;;14.70;;
25535;SDS011;13431;51.352;6.412;2022-11-20T07:40:54;18.08;;;14.63;;
25535;SDS011;13431;51.352;6.412;2022-11-20T07:43:23;17.80;;;15.02;;
25535;SDS011;13431;51.352;6.412;2022-11-20T07:45:51;18.83;;;15.57;;
25535;SDS011;13431;51.352;6.412;2022-11-20T07:48:21;17.40;;;15.35;;
25535;SDS011;13431;51.352;6.412;2022-11-20T07:50:49;18.52;;;16.02;;
25535;SDS011;13431;51.352;6.412;2022-11-20T07:53:16;19.17;;;16.50;;
25535;SDS011;13431;51.352;6.412;2022-11-20T07:55:47;18.38;;;15.90;;
25535;SDS011;13431;51.352;6.412;2022-11-20T07:58:14;16.42;;;14.10;;
25535;SDS011;13431;51.352;6.412;2022-11-20T08:00:42;17.67;;;15.55;;
25535;SDS011;13431;51.352;6.412;2022-11-20T08:03:09;17.10;;;15.30;;
25535;SDS011;13431;51.352;6.412;2022-11-20T08:05:36;18.33;;;15.68;;
25535;SDS011;13431;51.352;6.412;2022-11-20T08:08:04;16.70;;;14.90;;
25535;SDS011;13431;51.352;6.412;2022-11-20T08:10:31;17.08;;;14.85;;
25535;SDS011;13431;51.352;6.412;2022-11-20T08:12:58;17.15;;;15.20;;
25535;SDS011;13431;51.352;6.412;2022-11-20T08:15:55;17.42;;;15.63;;
25535;SDS011;13431;51.352;6.412;2022-11-20T08:18:22;17.83;;;15.23;;
25535;SDS011;13431;51.352;6.412;2022-11-20T08:20:58;21.33;;;16.83;;
25535;SDS011;13431;51.352;6.412;2022-11-20T08:23:28;18.40;;;16.42;;
25535;SDS011;13431;51.352;6.412;2022-11-20T08:25:56;16.80;;;15.07;;
25535;SDS011;13431;51.352;6.412;2022-11-20T08:28:24;17.90;;;15.60;;
25535;SDS011;13431;51.352;6.412;2022-11-20T08:30:51;17.55;;;15.30;;
25535;SDS011;13431;51.352;6.412;2022-11-20T08:33:28;17.75;;;15.85;;
25535;SDS011;13431;51.352;6.412;2022-11-20T08:36:00;18.42;;;16.52;;
25535;SDS011;13431;51.352;6.412;2022-11-20T08:38:28;18.13;;;16.15;;
25535;SDS011;13431;51.352;6.412;2022-11-20T08:40:57;16.83;;;15.07;;
25535;SDS011;13431;51.352;6.412;2022-11-20T08:43:43;18.30;;;16.05;;
25535;SDS011;13431;51.352;6.412;2022-11-20T08:46:11;17.77;;;15.63;;
25535;SDS011;13431;51.352;6.412;2022-11-20T08:48:38;18.02;;;16.13;;
25535;SDS011;13431;51.352;6.412;2022-11-20T08:51:06;19.70;;;15.25;;
25535;SDS011;13431;51.352;6.412;2022-11-20T08:53:33;18.92;;;16.77;;
25535;SDS011;13431;51.352;6.412;2022-11-20T08:56:00;22.52;;;18.58;;
25535;SDS011;13431;51.352;6.412;2022-11-20T08:58:28;17.85;;;15.80;;
25535;SDS011;13431;51.352;6.412;2022-11-20T09:00:57;18.58;;;16.65;;
25535;SDS011;13431;51.352;6.412;2022-11-20T09:03:24;19.20;;;17.23;;
25535;SDS011;13431;51.352;6.412;2022-11-20T09:06:02;18.75;;;16.75;;
25535;SDS011;13431;51.352;6.412;2022-11-20T09:08:31;19.23;;;16.65;;
25535;SDS011;13431;51.352;6.412;2022-11-20T09:10:59;19.40;;;16.80;;
25535;SDS011;13431;51.352;6.412;2022-11-20T09:13:27;19.48;;;16.83;;
25535;SDS011;13431;51.352;6.412;2022-11-20T09:15:56;17.45;;;15.70;;
25535;SDS011;13431;51.352;6.412;2022-11-20T09:18:26;20.45;;;17.17;;
25535;SDS011;13431;51.352;6.412;2022-11-20T09:20:58;18.25;;;16.13;;
25535;SDS011;13431;51.352;6.412;2022-11-20T09:23:27;19.20;;;16.75;;
25535;SDS011;13431;51.352;6.412;2022-11-20T09:26:01;20.60;;;16.67;;
25535;SDS011;13431;51.352;6.412;2022-11-20T09:28:32;18.30;;;16.35;;
25535;SDS011;13431;51.352;6.412;2022-11-20T09:31:00;17.05;;;15.35;;
25535;SDS011;13431;51.352;6.412;2022-11-20T09:33:27;17.60;;;15.70;;
25535;SDS011;13431;51.352;6.412;2022-11-20T09:35:55;18.58;;;16.67;;
25535;SDS011;13431;51.352;6.412;2022-11-20T09:38:22;18.92;;;16.92;;
25535;SDS011;13431;51.352;6.412;2022-11-20T09:40:52;19.98;;;16.55;;
25535;SDS011;13431;51.352;6.412;2022-11-20T09:43:30;17.98;;;15.93;;
25535;SDS011;13431;51.352;6.412;2022-11-20T09:51:59;20.83;;;17.08;;
25535;SDS011;13431;51.352;6.412;2022-11-20T09:54:41;22.08;;;17.02;;
25535;SDS011;13431;51.352;6.412;2022-11-20T09:57:10;20.23;;;16.88;;
25535;SDS011;13431;51.352;6.412;2022-11-20T09:59:41;31.20;;;20.15;;
25535;SDS011;13431;51.352;6.412;2022-11-20T10:02:25;32.58;;;21.73;;
25535;SDS011;13431;51.352;6.412;2022-11-20T10:07:36;33.33;;;21.67;;
25535;SDS011;13431;51.352;6.412;2022-11-20T10:10:14;33.83;;;22.33;;
25535;SDS011;13431;51.352;6.412;2022-11-20T10:12:57;28.85;;;21.55;;
25535;SDS011;13431;51.352;6.412;2022-11-20T10:26:44;40.97;;;25.63;;
25535;SDS011;13431;51.352;6.412;2022-11-20T10:29:59;38.53;;;22.80;;
25535;SDS011;13431;51.352;6.412;2022-11-20T10:32:34;48.70;;;27.42;;
25535;SDS011;13431;51.352;6.412;2022-11-20T10:37:58;47.22;;;27.48;;
25535;SDS011;13431;51.352;6.412;2022-11-20T10:40:38;47.00;;;27.15;;
25535;SDS011;13431;51.352;6.412;2022-11-20T10:43:11;40.83;;;25.83;;
25535;SDS011;13431;51.352;6.412;2022-11-20T10:48:16;44.30;;;25.98;;
25535;SDS011;13431;51.352;6.412;2022-11-20T10:51:28;39.00;;;24.75;;
25535;SDS011;13431;51.352;6.412;2022-11-20T10:54:04;37.08;;;24.98;;
25535;SDS011;13431;51.352;6.412;2022-11-20T10:56:39;39.95;;;26.15;;
25535;SDS011;13431;51.352;6.412;2022-11-20T11:02:18;39.33;;;25.17;;
25535;SDS011;13431;51.352;6.412;2022-11-20T11:04:49;40.25;;;25.42;;
25535;SDS011;13431;51.352;6.412;2022-11-20T11:09:52;40.00;;;25.08;;
25535;SDS011;13431;51.352;6.412;2022-11-20T11:12:22;55.78;;;32.17;;
25535;SDS011;13431;51.352;6.412;2022-11-20T11:14:52;54.50;;;37.70;;
25535;SDS011;13431;51.352;6.412;2022-11-20T11:19:59;39.38;;;24.65;;
25535;SDS011;13431;51.352;6.412;2022-11-20T11:22:30;43.60;;;28.75;;
25535;SDS011;13431;51.352;6.412;2022-11-20T11:24:59;45.65;;;29.83;;
25535;SDS011;13431;51.352;6.412;2022-11-20T11:27:27;43.65;;;29.92;;
25535;SDS011;13431;51.352;6.412;2022-11-20T11:30:02;40.80;;;26.42;;
25535;SDS011;13431;51.352;6.412;2022-11-20T11:32:37;42.10;;;26.13;;
25535;SDS011;13431;51.352;6.412;2022-11-20T11:35:05;38.47;;;24.90;;
25535;SDS011;13431;51.352;6.412;2022-11-20T11:37:45;33.42;;;23.27;;
25535;SDS011;13431;51.352;6.412;2022-11-20T11:40:14;36.60;;;24.80;;
25535;SDS011;13431;51.352;6.412;2022-11-20T11:42:56;33.42;;;23.05;;
25535;SDS011;13431;51.352;6.412;2022-11-20T11:45:26;31.83;;;23.52;;
25535;SDS011;13431;51.352;6.412;2022-11-20T11:47:55;30.90;;;23.02;;
25535;SDS011;13431;51.352;6.412;2022-11-20T11:50:25;31.75;;;22.38;;
25535;SDS011;13431;51.352;6.412;2022-11-20T11:53:14;31.77;;;23.35;;
25535;SDS011;13431;51.352;6.412;2022-11-20T11:55:47;33.80;;;23.70;;
25535;SDS011;13431;51.352;6.412;2022-11-20T11:58:41;31.40;;;21.80;;
25535;SDS011;13431;51.352;6.412;2022-11-20T12:01:21;28.90;;;20.00;;
25535;SDS011;13431;51.352;6.412;2022-11-20T12:07:07;27.92;;;21.00;;
25535;SDS011;13431;51.352;6.412;2022-11-20T12:10:00;32.17;;;22.00;;
25535;SDS011;13431;51.352;6.412;2022-11-20T12:12:30;27.50;;;20.88;;
25535;SDS011;13431;51.352;6.412;2022-11-20T12:15:04;29.42;;;21.15;;
25535;SDS011;13431;51.352;6.412;2022-11-20T12:17:36;26.05;;;20.08;;
25535;SDS011;13431;51.352;6.412;2022-11-20T12:20:05;27.17;;;19.92;;
25535;SDS011;13431;51.352;6.412;2022-11-20T12:25:29;25.17;;;20.27;;
25535;SDS011;13431;51.352;6.412;2022-11-20T12:28:14;24.60;;;19.63;;
25535;SDS011;13431;51.352;6.412;2022-11-20T12:31:06;24.98;;;19.35;;
25535;SDS011;13431;51.352;6.412;2022-11-20T12:33:59;26.17;;;19.48;;
25535;SDS011;13431;51.352;6.412;2022-11-20T12:36:29;24.20;;;18.98;;
25535;SDS011;13431;51.352;6.412;2022-11-20T12:39:02;28.02;;;19.67;;
25535;SDS011;13431;51.352;6.412;2022-11-20T12:44:57;24.60;;;20.55;;
25535;SDS011;13431;51.352;6.412;2022-11-20T12:50:52;29.63;;;20.60;;
25535;SDS011;13431;51.352;6.412;2022-11-20T13:01:59;29.42;;;19.48;;
25535;SDS011;13431;51.352;6.412;2022-11-20T13:07:42;26.25;;;20.25;;
25535;SDS011;13431;51.352;6.412;2022-11-20T13:10:14;26.63;;;19.55;;
25535;SDS011;13431;51.352;6.412;2022-11-20T13:13:04;27.50;;;19.25;;
25535;SDS011;13431;51.352;6.412;2022-11-20T13:16:00;24.83;;;19.92;;
25535;SDS011;13431;51.352;6.412;2022-11-20T13:18:36;25.08;;;19.42;;
25535;SDS011;13431;51.352;6.412;2022-11-20T13:21:15;23.60;;;18.83;;
25535;SDS011;13431;51.352;6.412;2022-11-20T13:23:44;25.23;;;19.33;;
25535;SDS011;13431;51.352;6.412;2022-11-20T13:26:19;22.00;;;18.58;;
25535;SDS011;13431;51.352;6.412;2022-11-20T13:28:59;23.80;;;19.35;;
25535;SDS011;13431;51.352;6.412;2022-11-20T13:31:32;24.25;;;19.83;;
25535;SDS011;13431;51.352;6.412;2022-11-20T13:34:03;22.42;;;18.13;;
25535;SDS011;13431;51.352;6.412;2022-11-20T13:36:32;24.27;;;18.17;;
25535;SDS011;13431;51.352;6.412;2022-11-20T13:39:01;24.58;;;18.73;;
25535;SDS011;13431;51.352;6.412;2022-11-20T13:41:33;22.80;;;18.15;;
25535;SDS011;13431;51.352;6.412;2022-11-20T13:44:14;25.67;;;19.27;;
25535;SDS011;13431;51.352;6.412;2022-11-20T13:46:49;24.90;;;18.83;;
25535;SDS011;13431;51.352;6.412;2022-11-20T13:49:17;26.23;;;18.92;;
25535;SDS011;13431;51.352;6.412;2022-11-20T13:52:26;21.17;;;17.07;;
25535;SDS011;13431;51.352;6.412;2022-11-20T13:55:20;24.25;;;19.40;;
25535;SDS011;13431;51.352;6.412;2022-11-20T13:58:07;26.48;;;20.15;;
25535;SDS011;13431;51.352;6.412;2022-11-20T14:01:09;25.55;;;19.58;;
25535;SDS011;13431;51.352;6.412;2022-11-20T14:03:41;25.60;;;20.75;;
25535;SDS011;13431;51.352;6.412;2022-11-20T14:06:29;28.95;;;20.83;;
25535;SDS011;13431;51.352;6.412;2022-11-20T14:08:59;25.42;;;20.20;;
25535;SDS011;13431;51.352;6.412;2022-11-20T14:11:28;28.48;;;20.23;;
25535;SDS011;13431;51.352;6.412;2022-11-20T14:13:57;26.73;;;19.00;;
25535;SDS011;13431;51.352;6.412;2022-11-20T14:16:39;26.35;;;20.05;;
25535;SDS011;13431;51.352;6.412;2022-11-20T14:21:46;29.33;;;20.73;;
25535;SDS011;13431;51.352;6.412;2022-11-20T14:24:34;24.48;;;18.55;;
25535;SDS011;13431;51.352;6.412;2022-11-20T14:27:02;29.23;;;21.55;;
25535;SDS011;13431;51.352;6.412;2022-11-20T14:29:33;28.75;;;20.20;;
25535;SDS011;13431;51.352;6.412;2022-11-20T14:32:02;26.73;;;20.38;;
25535;SDS011;13431;51.352;6.412;2022-11-20T14:34:31;28.30;;;20.10;;
25535;SDS011;13431;51.352;6.412;2022-11-20T14:37:04;26.83;;;20.50;;
25535;SDS011;13431;51.352;6.412;2022-11-20T14:39:46;29.10;;;21.00;;
25535;SDS011;13431;51.352;6.412;2022-11-20T14:42:25;25.20;;;19.13;;
25535;SDS011;13431;51.352;6.412;2022-11-20T14:47:23;27.13;;;19.73;;
25535;SDS011;13431;51.352;6.412;2022-11-20T14:49:53;25.52;;;19.50;;
25535;SDS011;13431;51.352;6.412;2022-11-20T14:52:23;26.02;;;20.00;;
25535;SDS011;13431;51.352;6.412;2022-11-20T14:54:53;26.38;;;20.25;;
25535;SDS011;13431;51.352;6.412;2022-11-20T14:57:34;27.40;;;20.95;;
25535;SDS011;13431;51.352;6.412;2022-11-20T15:02:42;25.98;;;20.13;;
25535;SDS011;13431;51.352;6.412;2022-11-20T15:05:11;33.08;;;22.45;;
25535;SDS011;13431;51.352;6.412;2022-11-20T15:07:40;28.95;;;20.30;;
25535;SDS011;13431;51.352;6.412;2022-11-20T15:10:13;26.33;;;21.38;;
25535;SDS011;13431;51.352;6.412;2022-11-20T15:12:54;29.15;;;21.48;;
25535;SDS011;13431;51.352;6.412;2022-11-20T15:15:35;28.48;;;21.33;;
25535;SDS011;13431;51.352;6.412;2022-11-20T15:18:15;29.17;;;22.05;;
25535;SDS011;13431;51.352;6.412;2022-11-20T15:20:52;31.02;;;22.65;;
25535;SDS011;13431;51.352;6.412;2022-11-20T15:23:22;29.23;;;21.13;;
25535;SDS011;13431;51.352;6.412;2022-11-20T15:25:50;32.72;;;22.52;;
25535;SDS011;13431;51.352;6.412;2022-11-20T15:28:21;28.05;;;22.15;;
25535;SDS011;13431;51.352;6.412;2022-11-20T15:30:51;28.85;;;22.27;;
25535;SDS011;13431;51.352;6.412;2022-11-20T15:33:19;31.20;;;20.83;;
25535;SDS011;13431;51.352;6.412;2022-11-20T15:35:46;25.88;;;20.55;;
25535;SDS011;13431;51.352;6.412;2022-11-20T15:38:13;30.25;;;21.67;;
25535;SDS011;13431;51.352;6.412;2022-11-20T15:40:41;30.75;;;21.15;;
25535;SDS011;13431;51.352;6.412;2022-11-20T15:43:08;29.25;;;22.38;;
25535;SDS011;13431;51.352;6.412;2022-11-20T15:45:40;28.42;;;21.85;;
25535;SDS011;13431;51.352;6.412;2022-11-20T15:48:20;26.05;;;20.60;;
25535;SDS011;13431;51.352;6.412;2022-11-20T15:53:30;27.70;;;20.50;;
25535;SDS011;13431;51.352;6.412;2022-11-20T15:55:58;29.23;;;21.40;;
25535;SDS011;13431;51.352;6.412;2022-11-20T15:58:25;28.98;;;20.60;;
25535;SDS011;13431;51.352;6.412;2022-11-20T16:00:53;27.42;;;20.98;;
25535;SDS011;13431;51.352;6.412;2022-11-20T16:03:21;26.40;;;20.63;;
25535;SDS011;13431;51.352;6.412;2022-11-20T16:05:48;26.33;;;22.38;;
25535;SDS011;13431;51.352;6.412;2022-11-20T16:08:16;29.08;;;21.13;;
25535;SDS011;13431;51.352;6.412;2022-11-20T16:10:43;29.42;;;22.08;;
25535;SDS011;13431;51.352;6.412;2022-11-20T16:13:11;29.35;;;21.50;;
25535;SDS011;13431;51.352;6.412;2022-11-20T16:16:17;27.73;;;20.40;;
25535;SDS011;13431;51.352;6.412;2022-11-20T16:18:46;27.60;;;21.58;;